Time;durP1;ratioP1;P1;durP2;ratioP2;P2;SDS_P1;SDS_P2;PMS_P1;PMS_P2;Temp;Humidity;BMP_temperature;BMP_pressure;BME280_temperature;BME280_humidity;BME280_pressure;Samples;Min_cycle;Max_cycle;Signal;HPM_P1;HPM_P2
2021/03/01 00:01:54;;;;;;;1.10;1.10;;;;;;;;;;5053251;28;20164;-63
2021/03/01 00:04:20;;;;;;;1.00;0.70;;;;;;;;;;5053353;28;20175;-64
2021/03/01 00:06:46;;;;;;;2.35;2.25;;;;;;;;;;5053154;28;20690;-63
2021/03/01 00:09:13;;;;;;;1.23;0.70;;;;;;;;;;5052393;28;20211;-63
2021/03/01 00:11:39;;;;;;;2.00;1.90;;;;;;;;;;5053277;28;20255;-63
2021/03/01 00:14:05;;;;;;;1.20;1.20;;;;;;;;;;5053263;28;20236;-63
2021/03/01 00:16:31;;;;;;;2.05;1.85;;;;;;;;;;5052835;28;21061;-63
2021/03/01 00:18:57;;;;;;;0.60;0.60;;;;;;;;;;5052348;28;20250;-63
2021/03/01 00:21:23;;;;;;;2.53;2.42;;;;;;;;;;5052909;28;20172;-63
2021/03/01 00:23:49;;;;;;;0.50;0.50;;;;;;;;;;5052946;28;20230;-63
2021/03/01 00:26:15;;;;;;;4.03;3.75;;;;;;;;;;5052849;28;20891;-61
2021/03/01 00:28:42;;;;;;;1.85;1.75;;;;;;;;;;5052856;28;20171;-63
2021/03/01 00:31:08;;;;;;;2.95;2.67;;;;;;;;;;5052521;28;20179;-63
2021/03/01 00:33:34;;;;;;;1.00;1.00;;;;;;;;;;5052459;28;20172;-61
2021/03/01 00:36:00;;;;;;;1.58;1.58;;;;;;;;;;5052637;28;20493;-62
2021/03/01 00:38:27;;;;;;;0.63;0.63;;;;;;;;;;5051291;28;20215;-62
2021/03/01 00:40:53;;;;;;;2.03;1.92;;;;;;;;;;5051983;28;20607;-63
2021/03/01 00:43:19;;;;;;;2.30;2.10;;;;;;;;;;5052690;28;20175;-62
2021/03/01 00:45:45;;;;;;;0.80;0.80;;;;;;;;;;5052586;28;20715;-63
2021/03/01 00:48:11;;;;;;;1.65;1.55;;;;;;;;;;5052294;28;20207;-63
2021/03/01 00:50:37;;;;;;;1.90;1.45;;;;;;;;;;5050570;28;20180;-64
2021/03/01 00:53:03;;;;;;;2.42;2.22;;;;;;;;;;5052884;28;20187;-64
2021/03/01 00:55:29;;;;;;;1.55;1.45;;;;;;;;;;5051814;28;20207;-64
2021/03/01 00:57:55;;;;;;;1.60;1.42;;;;;;;;;;5052397;28;20172;-64
2021/03/01 01:00:21;;;;;;;1.70;1.60;;;;;;;;;;5051589;28;20176;-64
2021/03/01 01:02:47;;;;;;;1.10;1.10;;;;;;;;;;5052078;28;20492;-63
2021/03/01 01:05:13;;;;;;;1.67;1.58;;;;;;;;;;5052088;28;20203;-63
2021/03/01 01:07:40;;;;;;;1.30;1.30;;;;;;;;;;5052746;28;20540;-63
2021/03/01 01:10:07;;;;;;;0.60;0.60;;;;;;;;;;5051316;28;20535;-64
2021/03/01 01:12:37;;;;;;;1.40;1.30;;;;;;;;;;5051160;28;20172;-64
2021/03/01 01:15:09;;;;;;;1.52;1.50;;;;;;;;;;5051909;28;20265;-63
2021/03/01 01:17:35;;;;;;;1.80;1.70;;;;;;;;;;5051795;28;20175;-63
2021/03/01 01:20:02;;;;;;;1.13;1.08;;;;;;;;;;5051133;28;20539;-62
2021/03/01 01:22:28;;;;;;;1.95;1.85;;;;;;;;;;5050611;28;20172;-63
2021/03/01 01:24:54;;;;;;;1.40;1.30;;;;;;;;;;5051786;28;20254;-63
2021/03/01 01:27:20;;;;;;;1.33;1.33;;;;;;;;;;5051787;28;20516;-64
2021/03/01 01:29:46;;;;;;;0.50;0.50;;;;;;;;;;5050892;28;20417;-62
2021/03/01 01:32:11;;;;;;;2.40;1.23;;;;;;;;;;5051701;28;20180;-62
2021/03/01 01:34:37;;;;;;;1.90;1.57;;;;;;;;;;5051633;28;20446;-63
2021/03/01 01:37:03;;;;;;;1.63;1.60;;;;;;;;;;5051765;28;20760;-62
2021/03/01 01:39:29;;;;;;;2.40;2.23;;;;;;;;;;5050936;28;20168;-62
2021/03/01 01:41:55;;;;;;;1.35;1.25;;;;;;;;;;5051666;28;20403;-63
2021/03/01 01:44:21;;;;;;;0.95;0.95;;;;;;;;;;5051545;28;20176;-62
2021/03/01 01:46:47;;;;;;;3.72;2.60;;;;;;;;;;5051448;28;20191;-62
2021/03/01 01:49:13;;;;;;;2.58;1.58;;;;;;;;;;5050808;28;20590;-63
2021/03/01 01:51:42;;;;;;;1.70;1.60;;;;;;;;;;5052042;28;20255;-64
2021/03/01 01:54:08;;;;;;;1.45;1.45;;;;;;;;;;5049824;28;20226;-62
2021/03/01 01:56:34;;;;;;;1.42;1.38;;;;;;;;;;5051449;28;20236;-64
2021/03/01 01:59:00;;;;;;;4.03;1.73;;;;;;;;;;5050935;28;20195;-64
2021/03/01 02:01:26;;;;;;;1.77;1.67;;;;;;;;;;5051389;28;20214;-64
2021/03/01 02:03:52;;;;;;;1.67;1.58;;;;;;;;;;5051317;28;20168;-64
2021/03/01 02:06:37;;;;;;;2.50;2.40;;;;;;;;;;5051023;28;20713;-64
2021/03/01 02:09:21;;;;;;;0.80;0.80;;;;;;;;;;5050714;28;20403;-63
2021/03/01 02:12:05;;;;;;;1.50;1.40;;;;;;;;;;5051301;28;20547;-64
2021/03/01 02:14:34;;;;;;;1.17;1.17;;;;;;;;;;5051059;28;20260;-63
2021/03/01 02:17:00;;;;;;;2.00;1.55;;;;;;;;;;5051143;28;20234;-63
2021/03/01 02:19:27;;;;;;;1.88;1.27;;;;;;;;;;5050577;28;20211;-63
2021/03/01 02:21:53;;;;;;;1.50;1.40;;;;;;;;;;5051213;28;20198;-64
2021/03/01 02:24:24;;;;;;;0.75;0.75;;;;;;;;;;5054013;28;20168;-64
2021/03/01 02:26:51;;;;;;;2.03;1.92;;;;;;;;;;5054920;28;20215;-63
2021/03/01 02:29:19;;;;;;;1.30;1.30;;;;;;;;;;5054476;28;20175;-63
2021/03/01 02:31:46;;;;;;;3.10;2.15;;;;;;;;;;5055021;28;20237;-63
2021/03/01 02:34:14;;;;;;;0.70;0.70;;;;;;;;;;5055041;28;20172;-64
2021/03/01 02:36:46;;;;;;;2.80;1.52;;;;;;;;;;5054677;28;20212;-62
2021/03/01 02:39:16;;;;;;;1.35;1.25;;;;;;;;;;5054178;28;20168;-63
2021/03/01 02:41:43;;;;;;;3.70;1.60;;;;;;;;;;5054919;28;20164;-63
2021/03/01 02:44:09;;;;;;;1.33;1.33;;;;;;;;;;5052970;28;20540;-63
2021/03/01 02:46:36;;;;;;;1.58;1.58;;;;;;;;;;5053270;28;20248;-60
2021/03/01 02:49:02;;;;;;;1.30;1.25;;;;;;;;;;5054214;28;20189;-62
2021/03/01 02:51:29;;;;;;;1.40;1.40;;;;;;;;;;5054659;28;20175;-60
2021/03/01 02:53:56;;;;;;;2.63;2.45;;;;;;;;;;5055202;28;20179;-63
2021/03/01 02:56:23;;;;;;;0.82;0.82;;;;;;;;;;5054357;28;20204;-64
2021/03/01 02:58:51;;;;;;;2.75;2.60;;;;;;;;;;5053968;28;20268;-62
2021/03/01 03:01:18;;;;;;;2.33;2.22;;;;;;;;;;5053621;28;20550;-62
2021/03/01 03:03:45;;;;;;;1.25;1.25;;;;;;;;;;5054954;28;20200;-62
2021/03/01 03:06:13;;;;;;;1.08;1.08;;;;;;;;;;5055321;28;20250;-64
2021/03/01 03:08:41;;;;;;;0.82;0.82;;;;;;;;;;5054019;28;20179;-65
2021/03/01 03:11:07;;;;;;;1.00;1.00;;;;;;;;;;5054008;28;20552;-64
2021/03/01 03:13:34;;;;;;;0.70;0.70;;;;;;;;;;5054241;28;20249;-64
2021/03/01 03:16:00;;;;;;;3.05;1.40;;;;;;;;;;5054062;28;20203;-64
2021/03/01 03:18:28;;;;;;;1.13;1.02;;;;;;;;;;5054100;28;20642;-64
2021/03/01 03:20:54;;;;;;;2.10;2.00;;;;;;;;;;5052129;28;20590;-65
2021/03/01 03:23:20;;;;;;;1.52;1.48;;;;;;;;;;5054104;28;20599;-64
2021/03/01 03:25:46;;;;;;;0.90;0.90;;;;;;;;;;5054292;28;20760;-64
2021/03/01 03:28:12;;;;;;;1.00;1.00;;;;;;;;;;5053920;28;20215;-64
2021/03/01 03:30:38;;;;;;;1.73;1.63;;;;;;;;;;5052016;28;20460;-64
2021/03/01 03:33:04;;;;;;;1.65;1.65;;;;;;;;;;5053764;28;20228;-64
2021/03/01 03:35:31;;;;;;;1.92;1.83;;;;;;;;;;5052856;28;20261;-66
2021/03/01 03:38:09;;;;;;;2.85;2.65;;;;;;;;;;5053692;28;20177;-65
2021/03/01 03:40:35;;;;;;;2.58;2.00;;;;;;;;;;5053095;28;20176;-65
2021/03/01 03:43:03;;;;;;;1.20;1.17;;;;;;;;;;5053595;28;20172;-64
2021/03/01 03:45:29;;;;;;;0.77;0.77;;;;;;;;;;5053749;28;20207;-65
2021/03/01 03:47:57;;;;;;;0.98;0.98;;;;;;;;;;5053668;28;20184;-63
2021/03/01 03:50:23;;;;;;;1.13;1.13;;;;;;;;;;5053066;28;20196;-65
2021/03/01 03:52:53;;;;;;;1.85;1.75;;;;;;;;;;5053701;28;20539;-64
2021/03/01 03:55:21;;;;;;;2.95;1.55;;;;;;;;;;5053597;28;20231;-64
2021/03/01 03:57:51;;;;;;;0.93;0.93;;;;;;;;;;5053345;28;20160;-64
2021/03/01 04:00:17;;;;;;;1.70;1.60;;;;;;;;;;5052713;28;20214;-65
2021/03/01 04:02:43;;;;;;;1.02;0.93;;;;;;;;;;5053704;28;20580;-65
2021/03/01 04:05:12;;;;;;;1.50;1.50;;;;;;;;;;5052956;28;20207;-65
2021/03/01 04:07:39;;;;;;;1.08;1.08;;;;;;;;;;5053350;28;20179;-65
2021/03/01 04:10:07;;;;;;;0.95;0.95;;;;;;;;;;5052610;28;20206;-65
2021/03/01 04:12:35;;;;;;;0.60;0.60;;;;;;;;;;5053199;28;20172;-65
2021/03/01 04:15:01;;;;;;;2.67;1.40;;;;;;;;;;5053016;28;20208;-64
2021/03/01 04:17:28;;;;;;;1.40;1.30;;;;;;;;;;5052947;28;20197;-65
2021/03/01 04:19:55;;;;;;;1.13;1.08;;;;;;;;;;5052479;28;20199;-64
2021/03/01 04:22:22;;;;;;;3.25;1.75;;;;;;;;;;5053123;28;20554;-64
2021/03/01 04:24:50;;;;;;;3.47;2.55;;;;;;;;;;5052965;28;20172;-65
2021/03/01 04:27:16;;;;;;;1.77;1.67;;;;;;;;;;5052811;28;20191;-63
2021/03/01 04:29:42;;;;;;;3.60;2.83;;;;;;;;;;5052613;28;20203;-64
2021/03/01 04:32:09;;;;;;;1.58;1.58;;;;;;;;;;5052347;28;20586;-65
2021/03/01 04:34:35;;;;;;;3.70;3.35;;;;;;;;;;5052626;28;20658;-64
2021/03/01 04:37:01;;;;;;;0.98;0.98;;;;;;;;;;5052564;28;20195;-64
2021/03/01 04:39:27;;;;;;;1.42;1.33;;;;;;;;;;5052027;28;20244;-64
2021/03/01 04:41:53;;;;;;;1.67;1.27;;;;;;;;;;5052634;28;20254;-64
2021/03/01 04:44:19;;;;;;;2.08;1.98;;;;;;;;;;5052611;28;20678;-65
2021/03/01 04:46:47;;;;;;;0.55;0.55;;;;;;;;;;5053195;28;20217;-63
2021/03/01 04:49:13;;;;;;;0.90;0.90;;;;;;;;;;5051910;28;20194;-63
2021/03/01 04:51:40;;;;;;;0.70;0.70;;;;;;;;;;5052408;28;20183;-63
2021/03/01 04:54:06;;;;;;;0.95;0.95;;;;;;;;;;5051266;28;20279;-63
2021/03/01 04:56:33;;;;;;;0.70;0.70;;;;;;;;;;5050868;28;20251;-63
2021/03/01 04:58:59;;;;;;;0.98;0.98;;;;;;;;;;5051579;28;20524;-62
2021/03/01 05:01:26;;;;;;;0.68;0.68;;;;;;;;;;5052087;28;20202;-63
2021/03/01 05:03:53;;;;;;;1.40;1.00;;;;;;;;;;5051994;28;20213;-62
2021/03/01 05:06:19;;;;;;;1.15;1.15;;;;;;;;;;5048664;28;20250;-63
2021/03/01 05:08:47;;;;;;;1.95;1.05;;;;;;;;;;5053492;28;20241;-64
2021/03/01 05:11:20;;;;;;;1.15;1.15;;;;;;;;;;5047902;28;20183;-63
2021/03/01 05:13:47;;;;;;;1.65;1.55;;;;;;;;;;5047631;28;20180;-63
2021/03/01 05:16:12;;;;;;;1.25;1.15;;;;;;;;;;5051613;28;20660;-64
2021/03/01 05:18:38;;;;;;;5.07;2.70;;;;;;;;;;5051711;28;20210;-63
2021/03/01 05:21:05;;;;;;;0.98;0.98;;;;;;;;;;5045884;28;20183;-62
2021/03/01 05:23:32;;;;;;;0.80;0.80;;;;;;;;;;5032028;28;20289;-62
2021/03/01 05:25:58;;;;;;;4.00;2.67;;;;;;;;;;5038661;28;20206;-64
2021/03/01 05:28:24;;;;;;;1.17;1.08;;;;;;;;;;5031756;28;20184;-63
2021/03/01 05:30:50;;;;;;;0.90;0.90;;;;;;;;;;5042353;28;20232;-63
2021/03/01 05:33:16;;;;;;;0.50;0.50;;;;;;;;;;5038231;28;20188;-63
2021/03/01 05:35:43;;;;;;;1.65;1.55;;;;;;;;;;5035722;28;20262;-63
2021/03/01 05:38:09;;;;;;;0.50;0.50;;;;;;;;;;5031633;28;20177;-63
2021/03/01 05:40:35;;;;;;;1.05;1.05;;;;;;;;;;5031261;28;20255;-63
2021/03/01 05:43:02;;;;;;;0.95;0.95;;;;;;;;;;5032468;28;20255;-63
2021/03/01 05:45:28;;;;;;;0.90;0.90;;;;;;;;;;5032975;28;20200;-63
2021/03/01 05:47:54;;;;;;;1.17;1.17;;;;;;;;;;5049179;28;20271;-63
2021/03/01 05:50:20;;;;;;;2.00;1.83;;;;;;;;;;5040035;28;20182;-63
2021/03/01 05:52:49;;;;;;;0.93;0.93;;;;;;;;;;5047154;28;20817;-63
2021/03/01 05:55:16;;;;;;;0.88;0.88;;;;;;;;;;5055080;28;20228;-64
2021/03/01 05:57:42;;;;;;;0.85;0.85;;;;;;;;;;5050377;28;20176;-63
2021/03/01 06:00:09;;;;;;;6.60;3.42;;;;;;;;;;5048692;28;20199;-63
2021/03/01 06:02:35;;;;;;;0.80;0.80;;;;;;;;;;5038554;28;20181;-63
2021/03/01 06:05:03;;;;;;;3.38;3.10;;;;;;;;;;5037162;28;20233;-63
2021/03/01 06:07:29;;;;;;;1.35;1.25;;;;;;;;;;5050323;28;20179;-64
2021/03/01 06:09:55;;;;;;;3.15;2.90;;;;;;;;;;5050192;28;20181;-63
2021/03/01 06:12:21;;;;;;;1.75;1.17;;;;;;;;;;5050846;28;20183;-63
2021/03/01 06:14:47;;;;;;;2.08;1.65;;;;;;;;;;5050808;28;20547;-63
2021/03/01 06:17:17;;;;;;;3.42;1.65;;;;;;;;;;5050772;28;20203;-63
2021/03/01 06:19:51;;;;;;;1.27;1.27;;;;;;;;;;5050172;28;20664;-64
2021/03/01 06:22:18;;;;;;;1.77;1.67;;;;;;;;;;5048381;28;20236;-62
2021/03/01 06:25:00;;;;;;;1.10;1.10;;;;;;;;;;5031121;28;20203;-61
2021/03/01 06:27:26;;;;;;;2.55;2.45;;;;;;;;;;5030951;28;20180;-64
2021/03/01 06:30:11;;;;;;;1.38;1.33;;;;;;;;;;5034563;28;20183;-64
2021/03/01 06:32:37;;;;;;;1.00;1.00;;;;;;;;;;5042226;28;20588;-63
2021/03/01 06:35:04;;;;;;;1.35;1.25;;;;;;;;;;5030768;28;20697;-63
2021/03/01 06:37:30;;;;;;;1.17;1.17;;;;;;;;;;5030863;28;20169;-64
2021/03/01 06:39:57;;;;;;;2.22;1.40;;;;;;;;;;5038332;28;20658;-63
2021/03/01 06:42:24;;;;;;;0.60;0.60;;;;;;;;;;5049875;28;20182;-64
2021/03/01 06:44:50;;;;;;;2.00;1.83;;;;;;;;;;5065142;28;20538;-63
2021/03/01 06:47:16;;;;;;;1.70;1.63;;;;;;;;;;5050832;28;20184;-64
2021/03/01 06:49:45;;;;;;;1.90;1.80;;;;;;;;;;5035206;28;20464;-65
2021/03/01 06:52:31;;;;;;;0.75;0.75;;;;;;;;;;5032540;28;20165;-64
2021/03/01 06:55:08;;;;;;;1.85;1.75;;;;;;;;;;5053994;28;20174;-64
2021/03/01 06:57:34;;;;;;;0.70;0.70;;;;;;;;;;5070403;28;20199;-64
2021/03/01 07:00:04;;;;;;;0.75;0.75;;;;;;;;;;5069763;28;20654;-65
2021/03/01 07:02:40;;;;;;;1.55;1.55;;;;;;;;;;5054200;28;20180;-64
2021/03/01 07:05:06;;;;;;;0.90;0.90;;;;;;;;;;5050495;28;20219;-65
2021/03/01 07:07:36;;;;;;;1.60;1.50;;;;;;;;;;5045380;28;20218;-65
2021/03/01 07:10:02;;;;;;;1.13;0.88;;;;;;;;;;5048832;28;20493;-64
2021/03/01 07:12:37;;;;;;;2.08;1.98;;;;;;;;;;5053945;28;20183;-64
2021/03/01 07:15:04;;;;;;;0.93;0.93;;;;;;;;;;5054314;28;20203;-64
2021/03/01 07:17:30;;;;;;;2.33;2.22;;;;;;;;;;5054404;28;20597;-64
2021/03/01 07:19:57;;;;;;;1.05;1.00;;;;;;;;;;5053267;28;20168;-64
2021/03/01 07:22:23;;;;;;;1.48;1.48;;;;;;;;;;5053988;28;20199;-64
2021/03/01 07:24:50;;;;;;;1.80;1.73;;;;;;;;;;5053798;28;20257;-65
2021/03/01 07:27:17;;;;;;;2.47;2.38;;;;;;;;;;5053828;28;20199;-64
2021/03/01 07:29:44;;;;;;;3.90;2.50;;;;;;;;;;5048743;28;20172;-64
2021/03/01 07:32:13;;;;;;;0.93;0.93;;;;;;;;;;5049559;28;20267;-64
2021/03/01 07:34:39;;;;;;;1.15;1.15;;;;;;;;;;5053423;28;20165;-65
2021/03/01 07:37:06;;;;;;;3.53;1.58;;;;;;;;;;5052862;28;20301;-64
2021/03/01 07:39:32;;;;;;;1.25;1.08;;;;;;;;;;5052421;28;20180;-64
2021/03/01 07:41:59;;;;;;;1.50;1.50;;;;;;;;;;5051792;28;20178;-62
2021/03/01 07:44:34;;;;;;;0.80;0.80;;;;;;;;;;5053160;28;20191;-64
2021/03/01 07:47:03;;;;;;;1.58;1.48;;;;;;;;;;5052801;28;20196;-63
2021/03/01 07:49:47;;;;;;;1.45;1.45;;;;;;;;;;5051137;28;20279;-64
2021/03/01 07:52:19;;;;;;;1.75;1.65;;;;;;;;;;5052573;28;20248;-64
2021/03/01 07:54:52;;;;;;;1.60;1.60;;;;;;;;;;5050643;28;20187;-64
2021/03/01 07:57:19;;;;;;;1.52;1.48;;;;;;;;;;5052849;28;20164;-65
2021/03/01 07:59:45;;;;;;;2.40;2.30;;;;;;;;;;5052061;28;20164;-65
2021/03/01 08:02:11;;;;;;;1.83;1.73;;;;;;;;;;5052732;28;20520;-64
2021/03/01 08:04:37;;;;;;;1.40;1.40;;;;;;;;;;5049666;28;20184;-65
2021/03/01 08:07:03;;;;;;;1.70;1.60;;;;;;;;;;5052253;28;20761;-64
2021/03/01 08:09:49;;;;;;;2.00;1.90;;;;;;;;;;5051918;28;20172;-65
2021/03/01 08:12:42;;;;;;;1.92;1.45;;;;;;;;;;5052641;28;20179;-64
2021/03/01 08:15:09;;;;;;;2.17;2.08;;;;;;;;;;5051223;28;20285;-65
2021/03/01 08:17:41;;;;;;;2.95;2.75;;;;;;;;;;5051864;28;20769;-64
2021/03/01 08:20:16;;;;;;;3.78;1.88;;;;;;;;;;5050430;28;20176;-65
2021/03/01 08:23:01;;;;;;;1.70;1.15;;;;;;;;;;5051866;28;20176;-65
2021/03/01 08:25:51;;;;;;;1.10;1.10;;;;;;;;;;5052191;28;20277;-65
2021/03/01 08:28:20;;;;;;;1.88;1.77;;;;;;;;;;5051282;28;20180;-65
2021/03/01 08:30:46;;;;;;;1.90;1.80;;;;;;;;;;5051754;28;20181;-65
2021/03/01 08:33:13;;;;;;;6.05;4.22;;;;;;;;;;5051972;28;20213;-65
2021/03/01 08:35:40;;;;;;;3.53;2.17;;;;;;;;;;5051840;28;20240;-65
2021/03/01 08:38:07;;;;;;;1.38;1.33;;;;;;;;;;5050599;28;20210;-65
2021/03/01 08:40:33;;;;;;;2.50;1.95;;;;;;;;;;5051437;28;20589;-65
2021/03/01 08:43:01;;;;;;;1.35;1.35;;;;;;;;;;5051921;28;20205;-65
2021/03/01 08:45:27;;;;;;;3.17;2.97;;;;;;;;;;5051830;28;20190;-65
2021/03/01 08:47:54;;;;;;;1.80;1.70;;;;;;;;;;5051846;28;20598;-65
2021/03/01 08:50:21;;;;;;;1.55;1.45;;;;;;;;;;5049796;28;20404;-65
2021/03/01 08:52:48;;;;;;;2.00;1.90;;;;;;;;;;5051773;28;20208;-65
2021/03/01 08:55:15;;;;;;;3.10;2.08;;;;;;;;;;5051642;28;20576;-63
2021/03/01 08:58:01;;;;;;;9.00;3.63;;;;;;;;;;5051512;28;20639;-63
2021/03/01 09:00:28;;;;;;;2.33;2.22;;;;;;;;;;5049854;28;20657;-63
2021/03/01 09:03:14;;;;;;;2.70;2.60;;;;;;;;;;5051660;28;20175;-64
2021/03/01 09:05:43;;;;;;;6.75;3.95;;;;;;;;;;5070086;22;20700;-63
2021/03/01 09:08:10;;;;;;;11.10;4.07;;;;;;;;;;5030367;28;20177;-63
2021/03/01 09:10:36;;;;;;;4.50;3.97;;;;;;;;;;5029958;28;20411;-63
2021/03/01 09:13:03;;;;;;;8.23;4.80;;;;;;;;;;5030488;28;20382;-64
2021/03/01 09:15:29;;;;;;;9.53;4.63;;;;;;;;;;5031361;28;20965;-64
2021/03/01 09:17:55;;;;;;;14.50;6.00;;;;;;;;;;5031589;28;20943;-64
2021/03/01 09:20:21;;;;;;;6.60;5.10;;;;;;;;;;5030602;28;20411;-64
2021/03/01 09:22:47;;;;;;;5.53;4.93;;;;;;;;;;5029901;28;20444;-64
2021/03/01 09:25:25;;;;;;;7.20;4.87;;;;;;;;;;5031100;28;20447;-64
2021/03/01 09:27:51;;;;;;;5.63;4.40;;;;;;;;;;5031089;28;20472;-64
2021/03/01 09:30:24;;;;;;;9.57;4.20;;;;;;;;;;5030410;28;20416;-63
2021/03/01 09:32:59;;;;;;;7.97;4.97;;;;;;;;;;5029618;28;20397;-63
2021/03/01 09:35:25;;;;;;;6.13;5.03;;;;;;;;;;5030163;28;20424;-64
2021/03/01 09:37:52;;;;;;;6.33;3.73;;;;;;;;;;5030894;28;20412;-63
2021/03/01 09:40:22;;;;;;;6.93;3.30;;;;;;;;;;5029821;28;20847;-64
2021/03/01 09:42:49;;;;;;;3.87;3.57;;;;;;;;;;5030978;28;20418;-63
2021/03/01 09:45:16;;;;;;;4.73;3.73;;;;;;;;;;5029470;28;21189;-63
2021/03/01 09:47:42;;;;;;;6.17;4.13;;;;;;;;;;5030865;28;20888;-63
2021/03/01 09:50:09;;;;;;;5.60;3.50;;;;;;;;;;5030166;28;20410;-64
2021/03/01 09:52:35;;;;;;;8.90;4.00;;;;;;;;;;5030933;28;20412;-64
2021/03/01 09:55:01;;;;;;;8.10;3.50;;;;;;;;;;5030698;28;20410;-63
2021/03/01 09:57:30;;;;;;;3.87;3.50;;;;;;;;;;5029421;28;20434;-63
2021/03/01 09:59:57;;;;;;;4.60;3.23;;;;;;;;;;5030022;28;20914;-63
2021/03/01 10:02:26;;;;;;;6.40;4.03;;;;;;;;;;5030730;28;20450;-63
2021/03/01 10:04:53;;;;;;;4.20;3.50;;;;;;;;;;5030683;28;20452;-63
2021/03/01 10:07:20;;;;;;;5.37;3.70;;;;;;;;;;5028991;28;20526;-63
2021/03/01 10:09:46;;;;;;;5.60;3.33;;;;;;;;;;5030144;28;20502;-63
2021/03/01 10:12:12;;;;;;;3.60;3.20;;;;;;;;;;5030118;28;20448;-63
2021/03/01 10:14:39;;;;;;;5.07;2.97;;;;;;;;;;5030741;28;20421;-63
2021/03/01 10:17:15;;;;;;;4.17;3.63;;;;;;;;;;5030697;28;20483;-63
2021/03/01 10:19:41;;;;;;;3.57;2.30;;;;;;;;;;5028730;28;20858;-63
2021/03/01 10:22:07;;;;;;;5.70;3.87;;;;;;;;;;5030511;28;20461;-63
2021/03/01 10:24:42;;;;;;;4.47;3.50;;;;;;;;;;5029649;28;20443;-63
2021/03/01 10:27:08;;;;;;;4.30;2.80;;;;;;;;;;5030386;28;20773;-64
2021/03/01 10:29:35;;;;;;;3.83;2.70;;;;;;;;;;5028608;28;20701;-63
2021/03/01 10:32:02;;;;;;;5.47;3.60;;;;;;;;;;5030385;28;20394;-64
2021/03/01 10:34:36;;;;;;;5.20;2.70;;;;;;;;;;5030373;28;20921;-64
2021/03/01 10:37:02;;;;;;;3.57;2.30;;;;;;;;;;5030270;28;20977;-64
2021/03/01 10:39:29;;;;;;;4.77;2.97;;;;;;;;;;5029802;28;20772;-64
2021/03/01 10:42:02;;;;;;;3.67;2.80;;;;;;;;;;5029262;28;21012;-64
2021/03/01 10:44:35;;;;;;;3.50;3.20;;;;;;;;;;5031405;28;20489;-64
2021/03/01 10:47:14;;;;;;;4.00;3.07;;;;;;;;;;5034048;28;20443;-64
2021/03/01 10:49:41;;;;;;;3.23;2.60;;;;;;;;;;5015713;28;20408;-63
2021/03/01 10:52:10;;;;;;;3.00;2.70;;;;;;;;;;5032553;28;20415;-64
2021/03/01 10:54:37;;;;;;;5.00;2.83;;;;;;;;;;5033921;28;20469;-63
2021/03/01 10:57:03;;;;;;;3.10;2.57;;;;;;;;;;5033817;28;20455;-64
2021/03/01 10:59:29;;;;;;;4.53;3.50;;;;;;;;;;5015612;28;20427;-64
2021/03/01 11:01:56;;;;;;;10.87;3.00;;;;;;;;;;5033696;28;20899;-64
2021/03/01 11:04:22;;;;;;;2.53;2.33;;;;;;;;;;5032821;28;20400;-64
2021/03/01 11:06:48;;;;;;;4.07;2.73;;;;;;;;;;5033532;28;20453;-64
2021/03/01 11:09:15;;;;;;;5.80;2.90;;;;;;;;;;5032949;28;20421;-64
2021/03/01 11:11:41;;;;;;;3.40;2.63;;;;;;;;;;5033687;28;20869;-64
2021/03/01 11:14:08;;;;;;;3.27;2.23;;;;;;;;;;5032351;28;20411;-64
2021/03/01 11:16:34;;;;;;;3.97;2.73;;;;;;;;;;5015222;28;20438;-64
2021/03/01 11:19:00;;;;;;;4.67;2.60;;;;;;;;;;5033067;28;20411;-64
2021/03/01 11:21:27;;;;;;;4.70;2.87;;;;;;;;;;5033643;28;20506;-64
2021/03/01 11:23:53;;;;;;;3.30;2.50;;;;;;;;;;5033669;28;20487;-64
2021/03/01 11:26:19;;;;;;;4.67;2.43;;;;;;;;;;5032005;28;20463;-64
2021/03/01 11:28:45;;;;;;;4.90;2.70;;;;;;;;;;5032736;28;20413;-64
2021/03/01 11:31:12;;;;;;;3.30;2.53;;;;;;;;;;5033049;28;20408;-64
2021/03/01 11:33:39;;;;;;;4.00;2.87;;;;;;;;;;5033426;28;20412;-64
2021/03/01 11:36:06;;;;;;;3.37;2.50;;;;;;;;;;5032459;28;20448;-64
2021/03/01 11:38:32;;;;;;;5.50;3.03;;;;;;;;;;5032750;28;20408;-64
2021/03/01 11:40:58;;;;;;;4.23;2.40;;;;;;;;;;5032388;28;20455;-64
2021/03/01 11:43:25;;;;;;;2.80;2.37;;;;;;;;;;5033100;28;20470;-64
2021/03/01 11:45:51;;;;;;;2.70;2.50;;;;;;;;;;5032972;28;20446;-64
2021/03/01 11:48:17;;;;;;;3.90;2.50;;;;;;;;;;5031268;28;20455;-64
2021/03/01 11:50:45;;;;;;;2.87;2.47;;;;;;;;;;5032354;28;20411;-64
2021/03/01 11:53:11;;;;;;;3.80;1.97;;;;;;;;;;5033000;28;20415;-63
2021/03/01 11:55:37;;;;;;;4.13;2.03;;;;;;;;;;5031901;28;20463;-64
2021/03/01 11:58:03;;;;;;;4.63;2.30;;;;;;;;;;5032590;28;20495;-63
2021/03/01 12:00:29;;;;;;;3.53;2.70;;;;;;;;;;5031083;28;20404;-64
2021/03/01 12:02:55;;;;;;;2.80;2.10;;;;;;;;;;5032720;28;20408;-64
2021/03/01 12:05:22;;;;;;;2.43;1.83;;;;;;;;;;5014682;28;20416;-64
2021/03/01 12:07:48;;;;;;;4.70;1.57;;;;;;;;;;5014910;28;20431;-64
2021/03/01 12:10:14;;;;;;;1.80;1.20;;;;;;;;;;5030613;28;20928;-64
2021/03/01 12:12:40;;;;;;;1.43;1.33;;;;;;;;;;5032714;28;20876;-64
2021/03/01 12:15:07;;;;;;;1.87;1.60;;;;;;;;;;5032391;28;20498;-64
2021/03/01 12:17:33;;;;;;;1.50;1.07;;;;;;;;;;5031674;28;20418;-64
2021/03/01 12:19:59;;;;;;;3.50;0.97;;;;;;;;;;5031282;28;20417;-65
2021/03/01 12:22:25;;;;;;;1.43;0.93;;;;;;;;;;5030221;28;20408;-64
2021/03/01 12:24:51;;;;;;;0.80;0.70;;;;;;;;;;5032120;28;20435;-64
2021/03/01 12:27:17;;;;;;;1.07;0.80;;;;;;;;;;5031733;28;20500;-64
2021/03/01 12:29:43;;;;;;;1.00;1.00;;;;;;;;;;5031775;28;20425;-64
2021/03/01 12:32:09;;;;;;;1.03;0.90;;;;;;;;;;5031053;28;20425;-64
2021/03/01 12:34:38;;;;;;;1.50;1.13;;;;;;;;;;5031368;28;20643;-64
2021/03/01 12:37:05;;;;;;;1.27;0.60;;;;;;;;;;5031595;28;20812;-64
2021/03/01 12:39:31;;;;;;;1.07;1.07;;;;;;;;;;5031036;28;20477;-64
2021/03/01 12:41:57;;;;;;;6.53;1.70;;;;;;;;;;5032098;28;20401;-64
2021/03/01 12:44:23;;;;;;;1.00;1.00;;;;;;;;;;5030579;28;20404;-65
2021/03/01 12:46:49;;;;;;;1.53;1.03;;;;;;;;;;5031920;28;20497;-64
2021/03/01 12:49:15;;;;;;;1.40;1.13;;;;;;;;;;5031280;28;20411;-64
2021/03/01 12:51:42;;;;;;;2.57;1.53;;;;;;;;;;5031942;28;20393;-64
2021/03/01 12:54:09;;;;;;;3.30;1.13;;;;;;;;;;5030398;28;20787;-64
2021/03/01 12:56:35;;;;;;;2.03;1.47;;;;;;;;;;5030198;28;20524;-64
2021/03/01 12:59:01;;;;;;;2.33;1.90;;;;;;;;;;5030567;28;20415;-63
2021/03/01 13:01:27;;;;;;;1.50;1.37;;;;;;;;;;5030954;28;20484;-64
2021/03/01 13:03:53;;;;;;;1.30;1.20;;;;;;;;;;5031082;28;20442;-64
2021/03/01 13:06:19;;;;;;;1.27;1.13;;;;;;;;;;5029682;28;20544;-64
2021/03/01 13:08:46;;;;;;;1.87;1.60;;;;;;;;;;5031093;28;20941;-63
2021/03/01 13:11:12;;;;;;;1.73;1.07;;;;;;;;;;5031213;28;20508;-64
2021/03/01 13:13:38;;;;;;;1.93;1.03;;;;;;;;;;5031513;28;20418;-63
2021/03/01 13:16:04;;;;;;;1.30;1.20;;;;;;;;;;5031175;28;20809;-64
2021/03/01 13:18:30;;;;;;;1.27;1.17;;;;;;;;;;5030226;28;20443;-64
2021/03/01 13:20:57;;;;;;;4.60;2.40;;;;;;;;;;5030747;28;20783;-64
2021/03/01 13:23:23;;;;;;;1.73;1.33;;;;;;;;;;5030918;28;20404;-64
2021/03/01 13:25:50;;;;;;;1.60;1.50;;;;;;;;;;5030904;28;20859;-64
2021/03/01 13:28:16;;;;;;;0.90;0.90;;;;;;;;;;5029734;28;20451;-63
2021/03/01 13:30:42;;;;;;;2.80;1.07;;;;;;;;;;5030359;28;20419;-64
2021/03/01 13:33:08;;;;;;;0.63;0.63;;;;;;;;;;5031276;28;20461;-63
2021/03/01 13:35:34;;;;;;;1.93;1.30;;;;;;;;;;5030966;28;20462;-65
2021/03/01 13:38:01;;;;;;;3.83;1.53;;;;;;;;;;5031103;28;20439;-65
2021/03/01 13:40:27;;;;;;;1.40;0.80;;;;;;;;;;5028925;28;20478;-64
2021/03/01 13:42:53;;;;;;;2.27;1.73;;;;;;;;;;5031324;28;20425;-64
2021/03/01 13:45:20;;;;;;;1.60;1.07;;;;;;;;;;5030903;28;20407;-64
2021/03/01 13:47:46;;;;;;;3.03;1.50;;;;;;;;;;5030803;28;20437;-64
2021/03/01 13:50:13;;;;;;;2.10;1.40;;;;;;;;;;5029319;28;20374;-64
2021/03/01 13:52:39;;;;;;;1.90;1.00;;;;;;;;;;5030558;28;20783;-64
2021/03/01 13:55:06;;;;;;;2.50;1.70;;;;;;;;;;5030744;28;20414;-64
2021/03/01 13:57:32;;;;;;;1.60;1.50;;;;;;;;;;5030321;28;20435;-65
2021/03/01 13:59:58;;;;;;;1.10;0.77;;;;;;;;;;5030046;28;20421;-64
2021/03/01 14:02:24;;;;;;;1.47;1.37;;;;;;;;;;5029460;28;20441;-65
2021/03/01 14:04:50;;;;;;;1.53;1.40;;;;;;;;;;5030832;28;20431;-65
2021/03/01 14:07:16;;;;;;;3.33;1.23;;;;;;;;;;5030813;28;20855;-64
2021/03/01 14:09:44;;;;;;;1.40;1.30;;;;;;;;;;5030294;28;20431;-65
2021/03/01 14:12:10;;;;;;;2.40;1.80;;;;;;;;;;5030137;28;20419;-64
2021/03/01 14:14:36;;;;;;;1.27;1.17;;;;;;;;;;5029779;28;20489;-64
2021/03/01 14:17:02;;;;;;;2.50;2.20;;;;;;;;;;5030534;28;20459;-65
2021/03/01 14:19:28;;;;;;;1.50;1.40;;;;;;;;;;5031408;28;20835;-65
2021/03/01 14:21:55;;;;;;;0.80;0.80;;;;;;;;;;5034691;28;20406;-65
2021/03/01 14:24:21;;;;;;;1.10;1.10;;;;;;;;;;5033268;28;20414;-65
2021/03/01 14:26:47;;;;;;;1.80;1.70;;;;;;;;;;5034783;28;20561;-65
2021/03/01 14:29:13;;;;;;;1.63;1.07;;;;;;;;;;5033671;28;20403;-65
2021/03/01 14:31:39;;;;;;;1.97;1.80;;;;;;;;;;5034185;28;20410;-64
2021/03/01 14:34:05;;;;;;;1.77;0.90;;;;;;;;;;5034526;28;20435;-65
2021/03/01 14:36:31;;;;;;;1.73;1.63;;;;;;;;;;5032793;28;20498;-64
2021/03/01 14:38:57;;;;;;;3.37;2.30;;;;;;;;;;5033879;28;20914;-64
2021/03/01 14:41:23;;;;;;;1.77;1.40;;;;;;;;;;5034483;28;20403;-65
2021/03/01 14:43:49;;;;;;;2.20;2.03;;;;;;;;;;5034352;28;20764;-65
2021/03/01 14:46:15;;;;;;;1.60;1.50;;;;;;;;;;5032795;28;20438;-65